createdAt,value
2018-09-20T00:01:32.563Z,18.04
2018-09-20T00:04:40.419Z,17.92
2018-09-20T00:07:09.624Z,17.79
2018-09-20T00:09:38.771Z,17.85
2018-09-20T00:12:08.008Z,17.94
2018-09-20T00:14:37.103Z,17.86
2018-09-20T00:17:06.535Z,17.80
2018-09-20T00:19:35.643Z,17.51
2018-09-20T00:22:04.935Z,17.49
2018-09-20T00:24:34.064Z,17.53
2018-09-20T00:27:03.253Z,17.59
2018-09-20T00:29:32.505Z,17.60
2018-09-20T00:32:01.897Z,17.54
2018-09-20T00:34:31.020Z,17.49
2018-09-20T00:37:00.256Z,17.38
2018-09-20T00:39:29.438Z,17.36
2018-09-20T00:41:58.641Z,17.22
2018-09-20T00:44:27.797Z,17.16
2018-09-20T00:46:56.972Z,17.20
2018-09-20T00:49:26.124Z,17.09
2018-09-20T00:51:55.316Z,17.10
2018-09-20T00:54:24.634Z,17.23
2018-09-20T00:56:53.836Z,17.12
2018-09-20T00:59:23.064Z,16.93
2018-09-20T01:01:52.215Z,16.82
2018-09-20T01:04:21.367Z,17.01
2018-09-20T01:06:50.780Z,16.96
2018-09-20T01:09:19.897Z,16.98
2018-09-20T01:11:49.052Z,16.84
2018-09-20T01:14:18.141Z,16.67
2018-09-20T01:16:47.253Z,16.81
2018-09-20T01:19:16.360Z,16.90
2018-09-20T01:21:45.540Z,16.87
2018-09-20T01:24:14.642Z,16.72
2018-09-20T01:26:43.844Z,16.78
2018-09-20T01:29:12.975Z,16.73
2018-09-20T01:31:42.115Z,16.71
2018-09-20T01:34:11.267Z,16.62
2018-09-20T01:36:40.624Z,16.57
2018-09-20T01:39:13.144Z,16.70
2018-09-20T01:41:42.347Z,16.60
2018-09-20T01:44:12.224Z,16.56
2018-09-20T01:46:41.739Z,16.54
2018-09-20T01:49:10.842Z,16.57
2018-09-20T01:51:40.056Z,16.46
2018-09-20T01:54:09.159Z,16.44
2018-09-20T01:56:38.312Z,16.42
2018-09-20T01:59:07.427Z,16.39
2018-09-20T02:01:37.298Z,16.40
2018-09-20T02:04:06.430Z,16.41
2018-09-20T02:06:35.605Z,16.48
2018-09-20T02:09:07.296Z,16.48
2018-09-20T02:11:36.470Z,16.55
2018-09-20T02:14:05.956Z,16.50
2018-09-20T02:16:35.079Z,16.49
2018-09-20T02:19:04.556Z,16.47
2018-09-20T02:21:33.717Z,16.29
2018-09-20T02:24:03.085Z,16.31
2018-09-20T02:26:32.341Z,16.21
2018-09-20T02:29:01.496Z,16.16
2018-09-20T02:31:30.730Z,16.08
2018-09-20T02:33:59.918Z,16.13
2018-09-20T02:36:29.076Z,16.10
2018-09-20T02:38:58.332Z,16.09
2018-09-20T02:41:27.420Z,16.03
2018-09-20T02:43:56.536Z,16.12
2018-09-20T02:46:25.642Z,15.98
2018-09-20T02:48:54.774Z,16.00
2018-09-20T02:51:23.979Z,15.92
2018-09-20T02:53:53.187Z,16.02
2018-09-20T02:56:22.371Z,15.95
2018-09-20T02:58:51.592Z,15.84
2018-09-20T03:01:20.717Z,15.76
2018-09-20T03:03:49.803Z,15.76
2018-09-20T03:06:18.940Z,15.76
2018-09-20T03:08:48.069Z,15.70
2018-09-20T03:11:17.240Z,15.87
2018-09-20T03:13:46.333Z,15.85
2018-09-20T03:16:15.452Z,15.80
2018-09-20T03:18:44.652Z,15.76
2018-09-20T03:21:13.791Z,15.85
2018-09-20T03:23:42.916Z,15.72
2018-09-20T03:26:12.093Z,15.62
2018-09-20T03:28:41.172Z,15.57
2018-09-20T03:31:10.382Z,15.63
2018-09-20T03:33:39.478Z,15.54
2018-09-20T03:36:08.674Z,15.55
2018-09-20T03:38:37.812Z,15.57
2018-09-20T03:41:06.988Z,15.50
2018-09-20T03:43:36.245Z,15.57
2018-09-20T03:46:05.412Z,15.57
2018-09-20T03:48:34.593Z,15.45
2018-09-20T03:51:03.789Z,15.49
2018-09-20T03:53:32.902Z,15.52
2018-09-20T03:56:02.106Z,15.34
2018-09-20T03:58:31.223Z,15.27
2018-09-20T04:01:00.411Z,15.26
2018-09-20T04:03:29.511Z,15.31
2018-09-20T04:05:58.620Z,15.40
2018-09-20T04:08:28.166Z,15.38
2018-09-20T04:10:57.300Z,15.36
2018-09-20T04:13:26.405Z,15.39
2018-09-20T04:15:55.546Z,15.36
2018-09-20T04:18:24.892Z,15.33
2018-09-20T04:20:54.057Z,15.30
2018-09-20T04:23:23.268Z,15.34
2018-09-20T04:25:52.461Z,15.36
2018-09-20T04:28:21.568Z,15.36
2018-09-20T04:30:50.806Z,15.38
2018-09-20T04:33:20.052Z,15.33
2018-09-20T04:35:49.239Z,15.35
2018-09-20T04:38:18.356Z,15.31
2018-09-20T04:40:47.549Z,15.31
2018-09-20T04:43:16.705Z,15.26
2018-09-20T04:45:45.965Z,15.20
2018-09-20T04:48:15.089Z,15.22
2018-09-20T04:50:44.320Z,15.20
2018-09-20T04:53:13.445Z,15.17
2018-09-20T04:55:42.595Z,15.14
2018-09-20T04:58:11.729Z,15.12
2018-09-20T05:00:40.877Z,15.03
2018-09-20T05:03:10.017Z,15.02
2018-09-20T05:05:39.221Z,15.09
2018-09-20T05:08:08.753Z,15.02
2018-09-20T05:10:37.920Z,15.20
2018-09-20T05:13:07.152Z,15.21
2018-09-20T05:15:36.524Z,15.26
2018-09-20T05:18:05.693Z,15.18
2018-09-20T05:20:34.804Z,15.15
2018-09-20T05:23:04.162Z,15.17
2018-09-20T05:25:33.310Z,15.23
2018-09-20T05:28:02.493Z,15.18
2018-09-20T05:30:31.851Z,15.29
2018-09-20T05:33:01.032Z,15.20
2018-09-20T05:35:30.264Z,15.31
2018-09-20T05:37:59.416Z,15.26
2018-09-20T05:40:28.599Z,15.26
2018-09-20T05:42:57.711Z,15.31
2018-09-20T05:45:26.897Z,15.52
2018-09-20T05:47:56.163Z,15.59
2018-09-20T05:50:25.405Z,15.68
2018-09-20T05:52:54.557Z,15.70
2018-09-20T05:55:23.757Z,15.82
2018-09-20T05:57:52.881Z,15.83
2018-09-20T06:00:22.213Z,15.85
2018-09-20T06:02:51.349Z,15.81
2018-09-20T06:05:20.552Z,15.90
2018-09-20T06:07:49.744Z,15.94
2018-09-20T06:10:18.846Z,15.97
2018-09-20T06:12:48.069Z,16.06
2018-09-20T06:15:17.337Z,16.16
2018-09-20T06:17:46.452Z,16.36
2018-09-20T06:20:15.551Z,16.47
2018-09-20T06:22:44.725Z,16.61
2018-09-20T06:25:13.832Z,16.58
2018-09-20T06:27:43.011Z,16.66
2018-09-20T06:30:12.149Z,16.79
2018-09-20T06:32:41.356Z,16.90
2018-09-20T06:35:10.557Z,17.06
2018-09-20T06:37:39.680Z,17.14
2018-09-20T06:40:08.890Z,17.22
2018-09-20T06:42:38.053Z,17.27
2018-09-20T06:45:07.196Z,17.42
2018-09-20T06:47:36.308Z,17.52
2018-09-20T06:50:05.576Z,17.56
2018-09-20T06:52:34.788Z,17.62
2018-09-20T06:55:03.918Z,17.74
2018-09-20T06:57:35.576Z,17.89
2018-09-20T07:00:06.321Z,17.94
2018-09-20T07:02:35.804Z,17.99
2018-09-20T07:05:05.691Z,18.07
2018-09-20T07:07:34.768Z,18.18
2018-09-20T07:10:03.888Z,18.26
2018-09-20T07:12:33.188Z,18.31
2018-09-20T07:15:02.599Z,18.40
2018-09-20T07:17:31.742Z,18.47
2018-09-20T07:20:00.932Z,18.56
2018-09-20T07:22:30.104Z,18.62
2018-09-20T07:24:59.300Z,18.77
2018-09-20T07:27:28.549Z,18.86
2018-09-20T07:29:57.680Z,18.98
2018-09-20T07:32:26.782Z,18.99
2018-09-20T07:34:55.896Z,19.12
2018-09-20T07:37:24.980Z,19.20
2018-09-20T07:39:55.048Z,19.38
2018-09-20T07:42:24.226Z,19.37
2018-09-20T07:44:53.398Z,19.43
2018-09-20T07:47:22.588Z,19.56
2018-09-20T07:49:51.811Z,19.64
2018-09-20T07:52:20.901Z,19.75
2018-09-20T07:54:50.073Z,19.80
2018-09-20T07:57:19.167Z,19.95
2018-09-20T07:59:48.269Z,19.91
2018-09-20T08:02:17.377Z,20.02
2018-09-20T08:04:46.553Z,20.04
2018-09-20T08:07:15.654Z,20.09
2018-09-20T08:09:44.757Z,20.15
2018-09-20T08:12:13.837Z,20.29
2018-09-20T08:14:42.937Z,20.28
2018-09-20T08:17:12.137Z,20.32
2018-09-20T08:19:41.382Z,20.53
2018-09-20T08:22:10.489Z,20.67
2018-09-20T08:24:39.585Z,20.70
2018-09-20T08:27:08.686Z,20.82
2018-09-20T08:29:37.831Z,21.01
2018-09-20T08:32:07.120Z,21.14
2018-09-20T08:34:36.328Z,21.17
2018-09-20T08:37:05.505Z,21.07
2018-09-20T08:39:34.678Z,21.09
2018-09-20T08:42:03.840Z,21.15
2018-09-20T08:44:32.967Z,21.28
2018-09-20T08:47:02.120Z,21.47
2018-09-20T08:49:31.252Z,21.50
2018-09-20T08:52:00.443Z,21.50
2018-09-20T08:54:29.688Z,21.68
2018-09-20T08:56:58.985Z,21.80
2018-09-20T08:59:28.034Z,21.88
2018-09-20T09:01:57.188Z,21.80
2018-09-20T09:04:26.401Z,21.95
2018-09-20T09:06:55.489Z,22.01
2018-09-20T09:09:24.669Z,22.07
2018-09-20T09:11:53.926Z,22.05
2018-09-20T09:14:23.159Z,22.09
2018-09-20T09:16:52.283Z,22.18
2018-09-20T09:19:21.438Z,22.28
2018-09-20T09:21:50.636Z,22.30
2018-09-20T09:24:19.738Z,22.43
2018-09-20T09:26:48.880Z,22.46
2018-09-20T09:29:17.999Z,22.53
2018-09-20T09:31:47.530Z,22.63
2018-09-20T09:34:16.699Z,22.77
2018-09-20T09:36:45.858Z,22.57
2018-09-20T09:39:14.979Z,22.66
2018-09-20T09:41:44.689Z,22.81
2018-09-20T09:44:13.828Z,22.64
2018-09-20T09:46:42.933Z,22.62
2018-09-20T09:49:12.140Z,22.57
2018-09-20T09:51:41.248Z,22.70
2018-09-20T09:54:10.444Z,22.96
2018-09-20T09:56:39.636Z,23.00
2018-09-20T09:59:08.804Z,23.17
2018-09-20T10:01:37.926Z,23.43
2018-09-20T10:04:07.052Z,23.59
2018-09-20T10:06:36.200Z,23.79
2018-09-20T10:09:07.879Z,23.84
2018-09-20T10:11:37.110Z,23.80
2018-09-20T10:14:06.254Z,23.55
2018-09-20T10:16:35.370Z,23.78
2018-09-20T10:19:04.580Z,23.94
2018-09-20T10:21:33.792Z,24.06
2018-09-20T10:24:03.036Z,24.25
2018-09-20T10:26:32.138Z,24.44
2018-09-20T10:29:01.243Z,24.41
2018-09-20T10:31:30.378Z,24.51
2018-09-20T10:33:59.538Z,24.57
2018-09-20T10:36:28.629Z,24.70
2018-09-20T10:38:57.702Z,24.69
2018-09-20T10:41:26.914Z,24.53
2018-09-20T10:43:56.004Z,24.58
2018-09-20T10:46:25.132Z,24.63
2018-09-20T10:48:54.300Z,24.54
2018-09-20T10:51:23.420Z,24.70
2018-09-20T10:53:52.597Z,24.74
2018-09-20T10:56:21.718Z,25.01
2018-09-20T10:58:50.880Z,25.15
2018-09-20T11:01:20.000Z,25.04
2018-09-20T11:03:49.289Z,25.32
2018-09-20T11:06:18.574Z,25.41
2018-09-20T11:08:47.641Z,25.26
2018-09-20T11:11:16.770Z,25.40
2018-09-20T11:13:45.934Z,25.41
2018-09-20T11:16:15.093Z,25.56
2018-09-20T11:18:44.165Z,25.68
2018-09-20T11:21:13.259Z,25.92
2018-09-20T11:23:42.392Z,25.89
2018-09-20T11:26:11.532Z,26.01
2018-09-20T11:28:40.589Z,26.05
2018-09-20T11:31:09.765Z,26.27
2018-09-20T11:33:39.001Z,26.74
2018-09-20T11:36:08.342Z,27.04
2018-09-20T11:38:37.376Z,27.05
2018-09-20T11:41:06.553Z,27.32
2018-09-20T11:43:35.749Z,27.76
2018-09-20T11:46:04.837Z,28.77
2018-09-20T11:48:33.929Z,29.00
2018-09-20T11:51:03.112Z,28.17
2018-09-20T11:53:32.240Z,31.57
2018-09-20T11:56:01.396Z,28.47
2018-09-20T11:58:30.698Z,30.10
2018-09-20T12:00:59.896Z,30.88
2018-09-20T12:03:29.092Z,30.47
2018-09-20T12:05:58.210Z,30.40
2018-09-20T12:08:27.302Z,30.25
2018-09-20T12:10:56.384Z,31.06
2018-09-20T12:13:25.478Z,30.64
2018-09-20T12:15:54.612Z,31.90
2018-09-20T12:18:23.716Z,32.55
2018-09-20T12:20:52.912Z,32.52
2018-09-20T12:23:22.018Z,32.67
2018-09-20T12:25:51.223Z,32.82
2018-09-20T12:28:20.351Z,32.79
2018-09-20T12:30:50.150Z,32.94
2018-09-20T12:33:19.324Z,32.62
2018-09-20T12:35:48.451Z,32.80
2018-09-20T12:38:17.664Z,32.28
2018-09-20T12:40:46.681Z,33.24
2018-09-20T12:43:15.923Z,33.41
2018-09-20T12:45:44.957Z,33.79
2018-09-20T12:48:14.078Z,33.39
2018-09-20T12:50:43.233Z,33.26
2018-09-20T12:53:12.332Z,33.75
2018-09-20T12:55:41.459Z,33.56
2018-09-20T12:58:10.613Z,34.09
2018-09-20T13:00:39.801Z,34.46
2018-09-20T13:03:08.873Z,34.61
2018-09-20T13:05:37.994Z,33.88
2018-09-20T13:08:07.100Z,34.42
2018-09-20T13:10:36.222Z,33.76
2018-09-20T13:13:05.367Z,34.12
2018-09-20T13:15:34.492Z,34.17
2018-09-20T13:18:03.600Z,33.82
2018-09-20T13:20:32.838Z,34.85
2018-09-20T13:23:01.900Z,35.33
2018-09-20T13:25:31.047Z,34.20
2018-09-20T13:28:00.172Z,34.83
2018-09-20T13:30:29.460Z,35.40
2018-09-20T13:32:58.536Z,34.74
2018-09-20T13:35:27.664Z,33.96
2018-09-20T13:37:56.932Z,34.65
2018-09-20T13:40:26.056Z,34.54
2018-09-20T13:42:55.214Z,35.16
2018-09-20T13:45:24.291Z,35.33
2018-09-20T13:47:53.535Z,36.05
2018-09-20T13:50:22.681Z,35.42
2018-09-20T13:52:51.805Z,35.82
2018-09-20T13:55:20.975Z,35.26
2018-09-20T13:57:50.037Z,35.55
2018-09-20T14:00:19.141Z,35.14
2018-09-20T14:02:48.377Z,35.39
2018-09-20T14:05:17.452Z,34.43
2018-09-20T14:07:46.588Z,35.72
2018-09-20T14:10:15.726Z,35.83
2018-09-20T14:12:44.884Z,35.33
2018-09-20T14:15:13.958Z,35.73
2018-09-20T14:17:43.062Z,35.98
2018-09-20T14:20:12.162Z,35.09
2018-09-20T14:22:41.257Z,35.80
2018-09-20T14:25:10.357Z,36.11
2018-09-20T14:27:39.681Z,34.72
2018-09-20T14:30:08.881Z,35.52
2018-09-20T14:32:37.961Z,35.60
2018-09-20T14:35:07.164Z,35.76
2018-09-20T14:37:36.268Z,35.65
2018-09-20T14:40:05.370Z,35.10
2018-09-20T14:42:34.463Z,36.06
2018-09-20T14:45:03.655Z,35.86
2018-09-20T14:47:32.744Z,36.90
2018-09-20T14:50:01.881Z,35.36
2018-09-20T14:52:31.014Z,34.99
2018-09-20T14:55:00.096Z,34.67
2018-09-20T14:57:29.216Z,35.63
2018-09-20T14:59:58.289Z,35.20
2018-09-20T15:02:27.475Z,35.01
2018-09-20T15:04:56.476Z,35.15
2018-09-20T15:07:25.747Z,35.37
2018-09-20T15:09:55.113Z,35.41
2018-09-20T15:12:24.203Z,35.19
2018-09-20T15:14:53.348Z,34.64
2018-09-20T15:17:22.413Z,34.62
2018-09-20T15:19:51.538Z,34.11
2018-09-20T15:22:20.631Z,34.53
2018-09-20T15:24:49.832Z,33.96
2018-09-20T15:27:18.925Z,34.42
2018-09-20T15:29:48.073Z,34.53
2018-09-20T15:32:17.185Z,34.40
2018-09-20T15:34:46.259Z,34.48
2018-09-20T15:37:15.379Z,34.34
2018-09-20T15:39:44.493Z,34.07
2018-09-20T15:42:13.609Z,33.82
2018-09-20T15:44:42.693Z,34.11
2018-09-20T15:47:11.849Z,33.58
2018-09-20T15:49:40.895Z,33.78
2018-09-20T15:52:10.061Z,33.73
2018-09-20T15:54:39.176Z,33.53
2018-09-20T15:57:08.282Z,33.16
2018-09-20T15:59:37.408Z,33.26
2018-09-20T16:02:06.561Z,33.15
2018-09-20T16:04:35.664Z,32.86
2018-09-20T16:07:04.780Z,31.87
2018-09-20T16:09:33.848Z,31.21
2018-09-20T16:12:03.048Z,31.27
2018-09-20T16:14:32.134Z,30.39
2018-09-20T16:17:01.238Z,29.66
2018-09-20T16:19:30.310Z,29.13
2018-09-20T16:21:59.400Z,28.88
2018-09-20T16:24:28.523Z,28.57
2018-09-20T16:26:57.626Z,28.28
2018-09-20T16:29:43.040Z,27.51
2018-09-20T16:36:38.461Z,27.85
2018-09-20T16:39:16.000Z,27.30
2018-09-20T16:41:46.449Z,27.13
2018-09-20T16:44:15.564Z,27.07
2018-09-20T16:46:44.656Z,26.72
2018-09-20T16:49:13.900Z,26.17
2018-09-20T16:51:43.004Z,26.04
2018-09-20T16:54:12.388Z,26.22
2018-09-20T16:56:41.496Z,25.95
2018-09-20T16:59:10.716Z,25.69
2018-09-20T17:01:39.804Z,25.56
2018-09-20T17:04:08.924Z,25.61
2018-09-20T17:06:38.028Z,25.47
2018-09-20T17:09:08.166Z,25.41
2018-09-20T17:11:37.517Z,25.33
2018-09-20T17:14:06.720Z,25.08
2018-09-20T17:16:35.911Z,24.95
2018-09-20T17:19:05.021Z,24.83
2018-09-20T17:21:34.142Z,24.81
2018-09-20T17:24:03.349Z,24.58
2018-09-20T17:26:32.469Z,24.31
2018-09-20T17:29:01.588Z,24.32
2018-09-20T17:31:30.668Z,24.09
2018-09-20T17:33:59.778Z,24.03
2018-09-20T17:36:29.135Z,23.98
2018-09-20T17:38:58.577Z,23.82
2018-09-20T17:41:30.328Z,23.68
2018-09-20T17:44:02.560Z,23.53
2018-09-20T17:46:31.659Z,23.44
2018-09-20T17:49:00.741Z,23.34
2018-09-20T17:51:30.098Z,22.94
2018-09-20T17:53:59.617Z,22.95
2018-09-20T17:56:29.350Z,22.90
2018-09-20T17:58:59.036Z,22.69
2018-09-20T18:01:28.313Z,22.74
2018-09-20T18:03:57.504Z,22.74
2018-09-20T18:06:26.591Z,22.81
2018-09-20T18:08:55.758Z,22.75
2018-09-20T18:11:24.863Z,22.49
2018-09-20T18:13:54.145Z,22.50
2018-09-20T18:16:23.261Z,22.48
2018-09-20T18:18:52.401Z,22.35
2018-09-20T18:21:21.541Z,22.35
2018-09-20T18:23:50.670Z,22.13
2018-09-20T18:26:19.822Z,22.24
2018-09-20T18:28:48.936Z,21.87
2018-09-20T18:31:18.065Z,21.95
2018-09-20T18:33:47.175Z,21.79
2018-09-20T18:36:16.305Z,21.53
2018-09-20T18:38:45.516Z,21.38
2018-09-20T18:41:14.684Z,21.40
2018-09-20T18:43:43.884Z,21.31
2018-09-20T18:46:13.064Z,21.16
2018-09-20T18:48:42.207Z,21.44
2018-09-20T18:51:11.380Z,21.51
2018-09-20T18:53:40.577Z,21.48
2018-09-20T18:56:09.752Z,21.36
2018-09-20T18:58:38.868Z,21.26
2018-09-20T19:01:08.765Z,21.31
2018-09-20T19:03:37.802Z,21.12
2018-09-20T19:06:06.917Z,21.17
2018-09-20T19:08:36.072Z,21.12
2018-09-20T19:11:05.306Z,21.13
2018-09-20T19:13:34.457Z,20.89
2018-09-20T19:16:03.584Z,20.78
2018-09-20T19:18:32.751Z,20.59
2018-09-20T19:21:01.996Z,20.76
2018-09-20T19:23:31.111Z,20.80
2018-09-20T19:26:00.258Z,20.72
2018-09-20T19:28:29.440Z,20.66
2018-09-20T19:30:58.761Z,20.70
2018-09-20T19:33:27.937Z,20.55
2018-09-20T19:35:57.080Z,20.48
2018-09-20T19:38:26.224Z,20.53
2018-09-20T19:40:55.503Z,20.34
2018-09-20T19:43:24.609Z,20.42
2018-09-20T19:45:53.745Z,20.33
2018-09-20T19:48:23.756Z,20.25
2018-09-20T19:50:52.997Z,20.31
2018-09-20T19:53:22.091Z,20.27
2018-09-20T19:55:51.237Z,20.29
2018-09-20T19:58:20.404Z,20.13
2018-09-20T20:00:49.781Z,20.16
2018-09-20T20:03:18.918Z,20.10
2018-09-20T20:05:48.044Z,19.94
2018-09-20T20:08:17.228Z,20.15
2018-09-20T20:10:46.330Z,20.03
2018-09-20T20:13:15.449Z,19.93
2018-09-20T20:15:44.602Z,19.90
2018-09-20T20:18:13.797Z,19.90
2018-09-20T20:20:42.883Z,19.89
2018-09-20T20:23:12.115Z,19.84
2018-09-20T20:25:41.301Z,19.77
2018-09-20T20:28:10.529Z,19.71
2018-09-20T20:30:39.689Z,19.57
2018-09-20T20:33:08.818Z,19.60
2018-09-20T20:35:44.231Z,19.49
2018-09-20T20:38:13.422Z,19.65
2018-09-20T20:40:42.534Z,19.60
2018-09-20T20:43:11.705Z,19.68
2018-09-20T20:45:40.918Z,19.60
2018-09-20T20:48:10.069Z,19.48
2018-09-20T20:50:39.199Z,19.28
2018-09-20T20:53:08.411Z,19.37
2018-09-20T20:55:37.449Z,19.32
2018-09-20T20:58:06.886Z,19.33
2018-09-20T21:00:35.989Z,19.23
2018-09-20T21:03:05.433Z,19.20
2018-09-20T21:05:34.553Z,19.22
2018-09-20T21:08:03.653Z,19.05
2018-09-20T21:10:32.798Z,19.01
2018-09-20T21:13:02.239Z,19.36
2018-09-20T21:15:31.410Z,19.25
2018-09-20T21:18:00.586Z,19.13
2018-09-20T21:20:29.806Z,19.06
2018-09-20T21:22:58.964Z,19.12
2018-09-20T21:25:28.115Z,19.03
2018-09-20T21:27:57.198Z,19.06
2018-09-20T21:30:26.338Z,18.92
2018-09-20T21:32:55.568Z,18.96
2018-09-20T21:35:24.770Z,18.75
2018-09-20T21:37:53.893Z,18.71
2018-09-20T21:40:23.002Z,18.80
2018-09-20T21:42:52.096Z,18.59
2018-09-20T21:45:21.262Z,18.60
2018-09-20T21:47:50.428Z,18.59
2018-09-20T21:50:19.672Z,18.68
2018-09-20T21:52:48.786Z,18.57
2018-09-20T21:55:17.902Z,18.58
2018-09-20T21:57:46.993Z,18.65
2018-09-20T22:00:16.166Z,18.51
2018-09-20T22:02:50.678Z,18.53
2018-09-20T22:05:19.855Z,18.55
2018-09-20T22:07:48.978Z,18.58
2018-09-20T22:10:18.139Z,18.59
2018-09-20T22:12:47.269Z,18.45
2018-09-20T22:15:23.516Z,18.40
2018-09-20T22:17:53.032Z,18.44
2018-09-20T22:20:22.797Z,18.37
2018-09-20T22:22:52.692Z,18.17
2018-09-20T22:25:21.970Z,18.21
2018-09-20T22:27:51.198Z,18.06
2018-09-20T22:30:20.581Z,18.07
2018-09-20T22:32:49.728Z,18.21
2018-09-20T22:35:18.900Z,18.21
2018-09-20T22:37:48.024Z,18.07
2018-09-20T22:40:17.132Z,18.05
2018-09-20T22:42:46.328Z,18.34
2018-09-20T22:45:15.408Z,18.24
2018-09-20T22:47:44.588Z,17.94
2018-09-20T22:50:13.683Z,17.85
2018-09-20T22:52:42.896Z,18.05
2018-09-20T22:55:12.096Z,17.88
2018-09-20T22:57:41.244Z,17.87
2018-09-20T23:00:10.376Z,17.83
2018-09-20T23:02:39.598Z,17.79
2018-09-20T23:05:08.784Z,17.92
2018-09-20T23:07:37.899Z,17.72
2018-09-20T23:10:07.081Z,17.71
2018-09-20T23:12:36.243Z,17.58
2018-09-20T23:15:05.485Z,17.50
2018-09-20T23:17:34.653Z,17.50
2018-09-20T23:20:03.801Z,17.51
2018-09-20T23:22:32.987Z,17.56
2018-09-20T23:25:02.130Z,17.48
2018-09-20T23:27:31.249Z,17.26
2018-09-20T23:30:00.370Z,17.12
2018-09-20T23:32:29.472Z,17.18
2018-09-20T23:34:58.593Z,17.19
2018-09-20T23:39:56.409Z,17.22
2018-09-20T23:42:25.509Z,17.21
2018-09-20T23:44:54.624Z,17.22
2018-09-20T23:47:23.723Z,17.13
2018-09-20T23:49:52.825Z,17.07
2018-09-20T23:52:21.952Z,17.26
2018-09-20T23:54:51.112Z,17.18
2018-09-20T23:57:20.288Z,17.23
2018-09-20T23:59:49.432Z,17.15
